Time;durP1;ratioP1;P1;durP2;ratioP2;P2;SDS_P1;SDS_P2;PMS_P1;PMS_P2;Temp;Humidity;BMP_temperature;BMP_pressure;BME280_temperature;BME280_humidity;BME280_pressure;Samples;Min_cycle;Max_cycle;Signal;HPM_P1;HPM_P2
2022/06/08 00:01:16;;;;;;;9.20;7.47;;;;;;;16.11;100.00;99309.28;5008627;28;21069;-55
2022/06/08 00:04:02;;;;;;;8.77;7.60;;;;;;;16.19;100.00;99300.94;5010977;28;20069;-55
2022/06/08 00:06:46;;;;;;;8.40;6.93;;;;;;;16.19;100.00;99298.31;5011287;28;20053;-53
2022/06/08 00:09:32;;;;;;;7.68;6.78;;;;;;;16.15;100.00;99291.47;5010314;28;20042;-53
2022/06/08 00:12:17;;;;;;;9.45;7.28;;;;;;;16.23;100.00;99288.41;5010256;28;20045;-53
2022/06/08 00:15:04;;;;;;;8.52;7.57;;;;;;;16.15;100.00;99294.09;5010718;28;20075;-53
2022/06/08 00:17:48;;;;;;;9.98;6.80;;;;;;;16.07;100.00;99285.78;5010687;28;20384;-53
2022/06/08 00:20:33;;;;;;;8.18;6.75;;;;;;;16.05;100.00;99295.56;5011570;28;20072;-53
2022/06/08 00:23:18;;;;;;;8.55;7.28;;;;;;;16.08;100.00;99304.16;5009500;28;20045;-53
2022/06/08 00:26:03;;;;;;;10.55;6.90;;;;;;;16.05;100.00;99307.00;5010521;28;20045;-53
2022/06/08 00:28:47;;;;;;;7.55;6.80;;;;;;;15.85;100.00;99320.44;5009884;28;20057;-54
2022/06/08 00:31:32;;;;;;;7.13;6.43;;;;;;;15.89;100.00;99322.84;5009507;28;20108;-53
2022/06/08 00:34:17;;;;;;;7.13;6.47;;;;;;;15.79;100.00;99318.13;5008582;28;20068;-53
2022/06/08 00:37:01;;;;;;;7.65;6.75;;;;;;;15.99;100.00;99314.38;5011455;28;20049;-53
2022/06/08 00:39:46;;;;;;;7.20;6.30;;;;;;;15.98;100.00;99305.63;5007516;28;20116;-53
2022/06/08 00:42:31;;;;;;;6.40;5.85;;;;;;;16.00;100.00;99313.47;5007815;28;20045;-53
2022/06/08 00:45:19;;;;;;;7.25;5.45;;;;;;;15.98;100.00;99304.78;5012443;28;20042;-53
2022/06/08 00:48:06;;;;;;;6.90;5.60;;;;;;;15.85;100.00;99305.44;5012827;28;20052;-53
2022/06/08 00:50:54;;;;;;;6.28;5.68;;;;;;;15.78;100.00;99301.44;5014254;28;20050;-54
2022/06/08 00:53:55;;;;;;;6.53;5.50;;;;;;;15.77;100.00;99299.72;5012477;28;20050;-53
2022/06/08 00:56:48;;;;;;;5.47;4.97;;;;;;;15.70;100.00;99303.66;5021498;28;20526;-53
2022/06/08 00:59:36;;;;;;;5.43;4.80;;;;;;;15.73;100.00;99299.97;5019240;28;20050;-52
2022/06/08 01:02:21;;;;;;;5.63;4.88;;;;;;;15.66;100.00;99299.41;5010173;28;20054;-53
2022/06/08 01:05:47;;;;;;;7.82;5.07;;;;;;;15.60;100.00;99299.78;5002214;28;20378;-53
2022/06/08 01:08:45;;;;;;;5.28;4.78;;;;;;;15.56;100.00;99303.47;4985285;28;20122;-53
2022/06/08 01:11:43;;;;;;;5.70;5.15;;;;;;;15.51;100.00;99289.69;5017321;28;20111;-53
2022/06/08 01:14:28;;;;;;;6.90;5.15;;;;;;;15.46;100.00;99291.72;5012282;28;20049;-54
2022/06/08 01:17:17;;;;;;;5.55;5.05;;;;;;;15.46;100.00;99278.53;5009579;28;20042;-53
2022/06/08 01:20:05;;;;;;;5.53;5.03;;;;;;;15.48;100.00;99282.78;5002289;28;20049;-53
2022/06/08 01:22:53;;;;;;;7.18;6.03;;;;;;;15.58;100.00;99288.44;4998441;28;20050;-53
2022/06/08 01:26:00;;;;;;;6.85;6.15;;;;;;;15.49;100.00;99281.84;5009035;28;20075;-54
2022/06/08 01:29:01;;;;;;;7.03;6.20;;;;;;;15.49;100.00;99278.38;4990345;28;20053;-53
2022/06/08 01:31:57;;;;;;;9.73;6.78;;;;;;;15.52;100.00;99276.41;5009763;28;20045;-53
2022/06/08 01:35:03;;;;;;;7.55;5.18;;;;;;;15.52;100.00;99279.03;5016015;28;20053;-53
2022/06/08 01:38:35;;;;;;;6.07;5.32;;;;;;;15.54;100.00;99277.19;5022333;28;20053;-53
2022/06/08 01:41:57;;;;;;;5.72;5.13;;;;;;;15.67;100.00;99279.22;4987553;28;20125;-53
2022/06/08 01:48:03;;;;;;;5.82;5.25;;;;;;;15.52;100.00;99276.41;5007729;28;20112;-53
2022/06/08 01:50:50;;;;;;;5.25;4.72;;;;;;;15.47;100.00;99278.47;5017669;28;20053;-53
2022/06/08 01:53:41;;;;;;;6.10;5.18;;;;;;;15.48;100.00;99280.16;5006058;28;20096;-53
2022/06/08 01:56:50;;;;;;;6.40;4.88;;;;;;;15.50;100.00;99274.78;5005322;28;20061;-53
2022/06/08 01:59:42;;;;;;;5.40;4.32;;;;;;;15.48;100.00;99274.03;5005655;28;20069;-53
2022/06/08 02:02:46;;;;;;;4.10;3.80;;;;;;;15.48;100.00;99276.66;5026162;28;20095;-53
2022/06/08 02:05:56;;;;;;;7.90;4.60;;;;;;;15.45;100.00;99263.63;5009403;28;20045;-54
2022/06/08 02:08:58;;;;;;;5.22;4.72;;;;;;;15.42;100.00;99272.56;5008794;28;20452;-54
2022/06/08 02:11:46;;;;;;;6.35;5.30;;;;;;;15.41;100.00;99262.94;5009961;28;20065;-53
2022/06/08 02:14:55;;;;;;;5.82;4.50;;;;;;;15.46;100.00;99265.34;5005860;28;20056;-53
2022/06/08 02:17:49;;;;;;;6.70;4.13;;;;;;;15.34;100.00;99267.69;5017970;28;20054;-53
2022/06/08 02:20:46;;;;;;;4.38;3.88;;;;;;;15.45;100.00;99268.91;4999938;28;20424;-54
2022/06/08 02:23:42;;;;;;;4.72;4.32;;;;;;;15.41;100.00;99262.94;5004739;28;20042;-56
2022/06/08 02:26:35;;;;;;;5.15;4.40;;;;;;;15.47;100.00;99269.66;5005135;28;20044;-54
2022/06/08 02:29:26;;;;;;;4.80;4.13;;;;;;;15.37;100.00;99264.03;5001872;28;20049;-54
2022/06/08 02:35:27;;;;;;;7.35;4.78;;;;;;;15.37;100.00;99264.91;5019509;28;20512;-54
2022/06/08 02:38:17;;;;;;;4.68;4.18;;;;;;;15.47;100.00;99265.25;5005210;28;20050;-53
2022/06/08 02:41:06;;;;;;;6.05;5.35;;;;;;;15.45;100.00;99261.84;5004567;28;20046;-53
2022/06/08 02:44:01;;;;;;;5.72;5.13;;;;;;;15.48;100.00;99258.19;5005421;28;20721;-54
2022/06/08 02:46:57;;;;;;;5.40;4.63;;;;;;;15.45;100.00;99251.28;5017307;28;20049;-53
2022/06/08 02:49:47;;;;;;;6.78;5.22;;;;;;;15.52;100.00;99268.50;5001533;28;20445;-53
2022/06/08 02:52:36;;;;;;;9.32;5.35;;;;;;;15.48;100.00;99268.75;5005205;28;20049;-53
2022/06/08 02:55:46;;;;;;;5.75;5.20;;;;;;;15.50;100.00;99266.88;5003311;28;20120;-56
2022/06/08 02:58:42;;;;;;;7.03;5.55;;;;;;;15.54;100.00;99263.16;5009061;28;20046;-53
2022/06/08 03:01:36;;;;;;;5.88;5.03;;;;;;;15.57;100.00;99265.63;5015304;28;20293;-53
2022/06/08 03:04:26;;;;;;;6.38;5.78;;;;;;;15.57;100.00;99257.69;5016979;28;20041;-54
2022/06/08 03:07:18;;;;;;;4.93;4.53;;;;;;;15.60;100.00;99257.53;5006200;28;20088;-54
2022/06/08 03:10:10;;;;;;;5.15;4.65;;;;;;;15.67;100.00;99253.66;5019993;28;20057;-54
2022/06/08 03:13:02;;;;;;;4.75;4.35;;;;;;;15.60;100.00;99249.63;5010187;28;20045;-54
2022/06/08 03:15:55;;;;;;;6.20;4.65;;;;;;;15.63;100.00;99254.69;5009553;28;20432;-54
2022/06/08 03:18:39;;;;;;;5.03;4.53;;;;;;;15.58;100.00;99254.13;5006929;28;20119;-54
2022/06/08 03:21:26;;;;;;;5.15;4.00;;;;;;;15.61;100.00;99256.59;5006246;28;20077;-53
2022/06/08 03:24:12;;;;;;;4.88;4.47;;;;;;;15.57;100.00;99253.28;5006824;28;20696;-54
2022/06/08 03:27:03;;;;;;;5.43;4.93;;;;;;;15.61;100.00;99256.59;5013712;28;20037;-54
2022/06/08 03:29:47;;;;;;;6.35;4.38;;;;;;;15.59;100.00;99258.44;5019469;28;20087;-55
2022/06/08 03:32:32;;;;;;;6.50;5.03;;;;;;;15.62;100.00;99260.94;5031140;28;20053;-53
2022/06/08 03:35:17;;;;;;;4.60;4.00;;;;;;;15.70;100.00;99258.78;5013599;28;20587;-54
2022/06/08 03:38:04;;;;;;;4.88;4.28;;;;;;;15.74;100.00;99268.22;5015842;28;20096;-54
2022/06/08 03:40:51;;;;;;;4.40;3.60;;;;;;;15.71;100.00;99262.25;5006425;28;20127;-53
2022/06/08 03:43:37;;;;;;;5.80;4.32;;;;;;;15.65;100.00;99263.41;5007361;28;20420;-54
2022/06/08 03:46:21;;;;;;;4.80;4.30;;;;;;;15.56;100.00;99275.31;5007841;28;20049;-53
2022/06/08 03:49:08;;;;;;;5.05;4.40;;;;;;;15.46;100.00;99276.72;5017618;28;20046;-54
2022/06/08 03:51:56;;;;;;;5.22;4.63;;;;;;;15.58;100.00;99280.50;5016060;28;20042;-53
2022/06/08 03:54:47;;;;;;;5.28;4.78;;;;;;;15.61;100.00;99277.72;5013401;28;20072;-53
2022/06/08 03:57:32;;;;;;;5.15;4.68;;;;;;;15.68;100.00;99283.53;5014305;28;20073;-53
2022/06/08 04:00:24;;;;;;;5.07;4.57;;;;;;;15.67;100.00;99280.06;5023787;28;20042;-54
2022/06/08 04:03:18;;;;;;;5.85;4.75;;;;;;;15.71;100.00;99284.22;5016201;28;20097;-54
2022/06/08 04:06:04;;;;;;;5.80;4.15;;;;;;;15.73;100.00;99287.66;5007013;28;20065;-53
2022/06/08 04:08:53;;;;;;;6.82;4.20;;;;;;;15.69;100.00;99293.16;5015431;28;20041;-53
2022/06/08 04:11:38;;;;;;;4.68;3.88;;;;;;;15.72;100.00;99290.34;5012036;28;20385;-53
2022/06/08 04:14:23;;;;;;;6.07;4.65;;;;;;;15.61;100.00;99299.66;5026538;28;20042;-55
2022/06/08 04:17:09;;;;;;;4.43;4.03;;;;;;;15.61;100.00;99294.41;5016762;28;20620;-53
2022/06/08 04:19:54;;;;;;;6.57;5.22;;;;;;;15.83;100.00;99293.28;5006601;28;20481;-53
2022/06/08 04:22:40;;;;;;;4.10;3.80;;;;;;;15.90;100.00;99297.28;5010916;28;20054;-54
2022/06/08 04:25:24;;;;;;;4.43;3.95;;;;;;;16.05;100.00;99300.84;5000380;28;20054;-53
2022/06/08 04:28:13;;;;;;;4.05;3.08;;;;;;;15.89;100.00;99303.47;5020171;28;20053;-54
2022/06/08 04:30:59;;;;;;;4.22;3.75;;;;;;;15.91;100.00;99290.19;5006560;28;20486;-54
2022/06/08 04:33:45;;;;;;;6.40;4.32;;;;;;;15.99;100.00;99295.91;5004686;28;20053;-53
2022/06/08 04:36:31;;;;;;;4.40;3.50;;;;;;;15.93;100.00;99288.34;5010328;28;20424;-54
2022/06/08 04:39:17;;;;;;;3.92;3.50;;;;;;;15.98;100.00;99302.97;5018608;28;20468;-54
2022/06/08 04:42:09;;;;;;;4.90;4.35;;;;;;;16.12;100.00;99305.72;5003896;28;20092;-53
2022/06/08 04:44:58;;;;;;;4.20;3.80;;;;;;;16.22;100.00;99294.66;5005837;28;20080;-54
2022/06/08 04:47:43;;;;;;;4.65;4.10;;;;;;;16.03;100.00;99289.53;5015719;28;20057;-54
2022/06/08 04:50:30;;;;;;;4.50;4.10;;;;;;;16.16;100.00;99287.06;5006545;28;20046;-54
2022/06/08 04:53:15;;;;;;;4.10;3.80;;;;;;;16.20;100.00;99294.72;5019651;28;20459;-54
2022/06/08 04:56:00;;;;;;;4.55;3.33;;;;;;;16.35;100.00;99293.00;5008133;28;20050;-55
2022/06/08 04:58:45;;;;;;;6.78;4.05;;;;;;;16.35;100.00;99283.28;5006051;28;20136;-54
2022/06/08 05:01:30;;;;;;;4.30;3.90;;;;;;;16.30;100.00;99282.69;5004294;28;20049;-54
2022/06/08 05:04:16;;;;;;;3.92;3.13;;;;;;;16.31;100.00;99288.81;5021450;28;20049;-53
2022/06/08 05:07:04;;;;;;;3.55;3.20;;;;;;;16.45;100.00;99280.13;5006935;28;20128;-54
2022/06/08 05:09:49;;;;;;;5.13;3.58;;;;;;;16.39;100.00;99276.03;5004924;28;20395;-53
2022/06/08 05:12:36;;;;;;;3.72;3.33;;;;;;;16.36;100.00;99282.34;5006990;28;20049;-53
2022/06/08 05:15:28;;;;;;;3.58;2.88;;;;;;;16.42;100.00;99282.94;5007245;28;20484;-53
2022/06/08 05:18:20;;;;;;;4.70;4.30;;;;;;;16.28;100.00;99284.59;5007401;28;20046;-53
2022/06/08 05:21:05;;;;;;;6.05;3.88;;;;;;;16.46;100.00;99292.38;5007472;28;20084;-53
2022/06/08 05:23:50;;;;;;;4.13;3.70;;;;;;;16.49;100.00;99290.41;5011825;28;20057;-53
2022/06/08 05:26:40;;;;;;;7.45;3.90;;;;;;;16.44;100.00;99288.97;5013357;28;20046;-53
2022/06/08 05:29:26;;;;;;;4.63;3.50;;;;;;;16.51;100.00;99283.25;5004874;28;20049;-54
2022/06/08 05:32:15;;;;;;;4.10;3.70;;;;;;;16.69;100.00;99283.97;4999083;28;20652;-53
2022/06/08 05:35:00;;;;;;;4.10;3.75;;;;;;;16.82;100.00;99284.97;5025372;28;20049;-54
2022/06/08 05:37:46;;;;;;;4.40;4.03;;;;;;;16.79;100.00;99282.53;5015545;28;20469;-53
2022/06/08 05:40:34;;;;;;;4.80;4.40;;;;;;;16.64;100.00;99279.88;5002411;28;20045;-54
2022/06/08 05:43:21;;;;;;;5.38;4.88;;;;;;;16.81;100.00;99285.09;5010992;28;20072;-54
2022/06/08 05:46:10;;;;;;;4.85;4.35;;;;;;;16.98;100.00;99282.28;5016833;28;20065;-53
2022/06/08 05:48:58;;;;;;;5.65;4.03;;;;;;;17.06;100.00;99268.59;5014350;28;20050;-53
2022/06/08 05:51:44;;;;;;;6.40;5.00;;;;;;;17.31;100.00;99280.34;5013458;28;20062;-53
2022/06/08 05:54:32;;;;;;;5.63;4.60;;;;;;;17.34;100.00;99281.00;5002289;28;20053;-54
2022/06/08 05:57:19;;;;;;;7.10;4.68;;;;;;;17.07;100.00;99280.91;5009327;28;20053;-53
2022/06/08 06:00:06;;;;;;;6.82;5.10;;;;;;;17.36;100.00;99270.34;5011176;28;20049;-54
2022/06/08 06:02:59;;;;;;;6.57;5.32;;;;;;;17.02;100.00;99267.91;5007847;28;20054;-54
2022/06/08 06:05:45;;;;;;;5.70;5.20;;;;;;;17.36;100.00;99273.00;5002707;28;20050;-53
2022/06/08 06:08:32;;;;;;;5.05;4.60;;;;;;;17.27;100.00;99282.34;5004866;28;20076;-53
2022/06/08 06:11:22;;;;;;;7.28;4.80;;;;;;;17.23;100.00;99273.72;5010149;28;20452;-54
2022/06/08 06:14:09;;;;;;;7.38;5.88;;;;;;;17.44;100.00;99270.72;5005346;28;20413;-54
2022/06/08 06:16:57;;;;;;;6.70;5.93;;;;;;;17.49;100.00;99271.28;5009609;28;20058;-55
2022/06/08 06:19:42;;;;;;;6.53;5.93;;;;;;;17.49;100.00;99268.63;5003083;28;20433;-54
2022/06/08 06:22:45;;;;;;;;;;;;;;;17.87;100.00;99265.41;5005774;28;20050;-54
2022/06/08 06:25:50;;;;;;;8.02;7.00;;;;;;;17.93;100.00;99260.56;5007558;28;19932;-54
2022/06/08 06:28:54;;;;;;;6.55;5.95;;;;;;;18.31;100.00;99272.28;5007372;28;20136;-54
2022/06/08 06:32:14;;;;;;;8.23;5.97;;;;;;;18.40;100.00;99277.00;5000119;28;20054;-55
2022/06/08 06:35:09;;;;;;;8.70;5.38;;;;;;;18.49;100.00;99276.41;5004260;28;20048;-54
2022/06/08 06:37:56;;;;;;;6.82;6.13;;;;;;;18.43;100.00;99277.66;5006943;28;20068;-55
2022/06/08 06:40:40;;;;;;;6.22;5.53;;;;;;;18.34;100.00;99280.03;5010658;28;20053;-54
2022/06/08 06:43:26;;;;;;;5.63;5.13;;;;;;;18.40;100.00;99283.16;5009303;28;20037;-54
2022/06/08 06:46:28;;;;;;;5.93;5.05;;;;;;;18.40;100.00;99272.53;5007917;28;20046;-55
2022/06/08 06:49:33;;;;;;;5.63;4.93;;;;;;;18.55;100.00;99275.13;5009123;28;20050;-54
2022/06/08 06:52:18;;;;;;;5.68;5.18;;;;;;;18.95;100.00;99268.03;5009133;28;20053;-55
2022/06/08 06:55:04;;;;;;;6.28;5.78;;;;;;;19.29;100.00;99265.72;5007721;28;20465;-55
2022/06/08 06:57:49;;;;;;;6.43;5.68;;;;;;;19.35;100.00;99262.63;5007753;28;20053;-57
2022/06/08 07:00:38;;;;;;;7.68;5.20;;;;;;;19.39;100.00;99269.41;5001980;28;20092;-55
2022/06/08 07:03:26;;;;;;;7.18;5.80;;;;;;;19.54;100.00;99273.66;5010064;28;20057;-54
2022/06/08 07:06:11;;;;;;;5.40;4.90;;;;;;;19.74;100.00;99276.75;5001446;28;20050;-55
2022/06/08 07:08:59;;;;;;;5.38;4.93;;;;;;;19.49;100.00;99269.63;5010624;28;20069;-55
2022/06/08 07:11:45;;;;;;;5.80;5.20;;;;;;;19.80;100.00;99277.16;5004290;28;20061;-55
2022/06/08 07:14:35;;;;;;;6.65;5.95;;;;;;;19.56;100.00;99273.53;5019075;28;20398;-56
2022/06/08 07:17:32;;;;;;;5.75;5.25;;;;;;;19.81;100.00;99268.22;5003918;28;20057;-55
2022/06/08 07:20:18;;;;;;;5.40;4.90;;;;;;;20.43;100.00;99269.06;5011909;28;20042;-57
2022/06/08 07:23:03;;;;;;;6.38;5.75;;;;;;;20.63;100.00;99268.44;5011492;28;20046;-56
2022/06/08 07:25:48;;;;;;;4.80;4.40;;;;;;;20.68;100.00;99270.78;5008191;28;20472;-55
2022/06/08 07:28:33;;;;;;;5.55;5.13;;;;;;;21.41;100.00;99275.78;5006950;28;20045;-55
2022/06/08 07:31:19;;;;;;;5.72;4.72;;;;;;;21.46;100.00;99275.44;5008553;28;20448;-56
2022/06/08 07:34:04;;;;;;;5.13;4.63;;;;;;;20.89;100.00;99270.97;5006744;28;20046;-57
2022/06/08 07:36:49;;;;;;;4.40;4.00;;;;;;;21.52;100.00;99271.47;5008758;28;20738;-56
2022/06/08 07:39:35;;;;;;;6.07;5.20;;;;;;;21.52;100.00;99274.13;5007347;28;20396;-56
2022/06/08 07:42:19;;;;;;;4.88;4.47;;;;;;;21.83;100.00;99275.19;5016194;28;20050;-57
2022/06/08 07:45:06;;;;;;;6.63;5.00;;;;;;;20.95;100.00;99267.81;5017232;28;20072;-56
2022/06/08 07:50:53;;;;;;;4.22;3.83;;;;;;;21.06;100.00;99253.69;5017515;28;20049;-56
2022/06/08 07:53:37;;;;;;;4.75;4.32;;;;;;;21.28;100.00;99259.03;5015854;28;20421;-57
2022/06/08 07:56:22;;;;;;;3.78;3.45;;;;;;;21.89;100.00;99256.88;5015187;28;20050;-57
2022/06/08 07:59:07;;;;;;;3.97;3.67;;;;;;;22.17;100.00;99257.34;5016223;28;20077;-57
2022/06/08 08:01:52;;;;;;;4.90;4.50;;;;;;;21.82;100.00;99237.03;5015467;28;20048;-56
2022/06/08 08:04:36;;;;;;;4.35;3.95;;;;;;;23.08;100.00;99242.66;5017979;28;20049;-57
2022/06/08 08:07:23;;;;;;;4.25;3.85;;;;;;;23.90;100.00;99247.13;5017050;28;20191;-57
2022/06/08 08:10:13;;;;;;;3.08;2.78;;;;;;;24.39;100.00;99250.72;5018045;28;20489;-58
2022/06/08 08:12:57;;;;;;;3.53;3.22;;;;;;;23.38;100.00;99255.19;5014197;28;20046;-57
2022/06/08 08:15:44;;;;;;;2.90;2.70;;;;;;;23.08;100.00;99256.00;5010753;28;20085;-58
2022/06/08 08:18:29;;;;;;;3.13;2.85;;;;;;;23.04;100.00;99249.22;5010327;28;20065;-58
2022/06/08 08:21:14;;;;;;;3.17;2.88;;;;;;;23.01;100.00;99250.34;5011246;28;20065;-58
2022/06/08 08:23:59;;;;;;;3.60;3.30;;;;;;;24.10;100.00;99253.34;5011943;28;20061;-58
2022/06/08 08:26:45;;;;;;;3.30;2.80;;;;;;;24.95;100.00;99253.50;5008387;28;20049;-58
2022/06/08 08:29:30;;;;;;;2.75;2.55;;;;;;;25.46;100.00;99251.44;5008847;28;20053;-58
2022/06/08 08:32:14;;;;;;;3.83;2.65;;;;;;;25.33;100.00;99243.72;5010416;28;20045;-59
2022/06/08 08:34:58;;;;;;;4.60;2.95;;;;;;;24.45;100.00;99252.84;5010469;28;20042;-58
2022/06/08 08:37:45;;;;;;;2.70;2.50;;;;;;;25.13;100.00;99244.78;5009960;28;20104;-58
2022/06/08 08:40:44;;;;;;;2.03;1.92;;;;;;;25.68;100.00;99244.88;5007494;28;20388;-59
2022/06/08 08:43:33;;;;;;;3.13;2.50;;;;;;;25.14;100.00;99249.16;5010366;28;20056;-58
2022/06/08 08:46:30;;;;;;;3.78;2.53;;;;;;;25.25;100.00;99235.59;5009742;28;20042;-59
2022/06/08 08:49:23;;;;;;;2.17;1.98;;;;;;;25.47;99.99;99237.03;5013879;28;20042;-59
2022/06/08 08:52:55;;;;;;;3.58;2.08;;;;;;;24.62;100.00;99229.88;5011451;28;20055;-59
2022/06/08 08:55:48;;;;;;;2.78;1.90;;;;;;;24.08;100.00;99242.81;4968466;28;20532;-58
2022/06/08 08:58:36;;;;;;;2.65;2.10;;;;;;;23.87;100.00;99236.69;5014349;28;20053;-59
2022/06/08 09:01:26;;;;;;;2.80;1.98;;;;;;;24.36;100.00;99242.97;5012073;28;20034;-60
2022/06/08 09:04:21;;;;;;;2.90;2.63;;;;;;;23.48;100.00;99249.88;5013015;28;20050;-59
2022/06/08 09:07:17;;;;;;;2.70;2.30;;;;;;;23.79;100.00;99250.75;5007698;28;20041;-58
2022/06/08 09:10:03;;;;;;;3.15;1.60;;;;;;;24.40;100.00;99255.91;5008611;28;20037;-58
2022/06/08 09:12:49;;;;;;;3.65;2.60;;;;;;;23.58;100.00;99258.78;5009253;28;20045;-58
2022/06/08 09:15:56;;;;;;;5.97;3.20;;;;;;;22.95;100.00;99256.22;5010480;28;20077;-59
2022/06/08 09:18:41;;;;;;;4.70;2.83;;;;;;;23.14;100.00;99255.50;5008134;28;20046;-58
2022/06/08 09:21:33;;;;;;;5.63;4.80;;;;;;;22.06;100.00;99250.19;5008463;28;20045;-60
2022/06/08 09:24:28;;;;;;;4.05;3.72;;;;;;;22.71;100.00;99252.91;5012802;28;20038;-59
2022/06/08 09:27:16;;;;;;;4.43;4.03;;;;;;;22.27;100.00;99250.28;5011724;28;20652;-58
2022/06/08 09:30:00;;;;;;;4.38;2.97;;;;;;;22.33;100.00;99249.78;5014894;28;20056;-58
2022/06/08 09:32:50;;;;;;;6.32;3.65;;;;;;;22.60;100.00;99251.13;5013105;28;20057;-58
2022/06/08 09:35:50;;;;;;;4.03;3.63;;;;;;;22.58;100.00;99256.59;5010724;28;20048;-60
2022/06/08 09:38:40;;;;;;;6.30;4.82;;;;;;;22.72;100.00;99251.94;5007977;28;20049;-58
2022/06/08 09:41:26;;;;;;;5.35;4.15;;;;;;;22.82;100.00;99252.84;5013741;28;20178;-58
2022/06/08 09:44:57;;;;;;;4.93;3.85;;;;;;;23.51;100.00;99250.47;5012773;28;20052;-59
2022/06/08 09:52:00;;;;;;;4.03;3.25;;;;;;;23.59;100.00;99239.09;4995284;28;20042;-59
2022/06/08 09:55:04;;;;;;;3.55;3.25;;;;;;;24.08;100.00;99240.13;5007409;28;20153;-59
2022/06/08 09:58:09;;;;;;;4.03;3.50;;;;;;;23.77;100.00;99244.69;5012909;28;20997;-61
2022/06/08 10:01:27;;;;;;;4.30;3.85;;;;;;;24.39;100.00;99242.69;5014938;28;21389;-59
2022/06/08 10:04:23;;;;;;;3.05;2.72;;;;;;;23.89;100.00;99232.06;5014131;28;20065;-59
2022/06/08 10:07:33;;;;;;;3.47;3.17;;;;;;;24.20;100.00;99225.63;5009611;28;20045;-58
2022/06/08 10:10:29;;;;;;;4.72;2.72;;;;;;;24.37;100.00;99224.06;5015157;28;21413;-59
2022/06/08 10:13:23;;;;;;;4.07;3.60;;;;;;;23.64;100.00;99222.66;5010975;28;20046;-58
2022/06/08 10:16:22;;;;;;;3.17;2.88;;;;;;;23.25;100.00;99218.00;5009084;28;20058;-57
2022/06/08 10:19:13;;;;;;;2.72;2.40;;;;;;;23.33;100.00;99210.19;5005704;28;20038;-57
2022/06/08 10:22:01;;;;;;;3.50;3.20;;;;;;;22.95;100.00;99208.16;5008224;28;20061;-59
2022/06/08 10:25:01;;;;;;;4.90;2.30;;;;;;;23.76;100.00;99211.75;5007025;28;20300;-61
2022/06/08 10:27:57;;;;;;;5.85;2.70;;;;;;;23.86;100.00;99197.56;5007833;28;20054;-61
2022/06/08 10:30:54;;;;;;;3.30;2.58;;;;;;;24.01;100.00;99205.03;5008421;28;20050;-60
2022/06/08 10:33:49;;;;;;;3.97;2.45;;;;;;;24.12;100.00;99208.59;5006127;28;20050;-59
2022/06/08 10:36:35;;;;;;;3.20;2.40;;;;;;;24.08;100.00;99208.03;5006166;28;20551;-59
2022/06/08 10:39:22;;;;;;;2.70;2.50;;;;;;;23.78;100.00;99211.59;5005155;28;20046;-58
2022/06/08 10:45:30;;;;;;;3.75;2.78;;;;;;;23.60;100.00;99197.19;5007058;28;20654;-58
2022/06/08 10:48:14;;;;;;;3.75;2.42;;;;;;;24.29;100.00;99204.38;5007756;28;20097;-58
2022/06/08 10:51:11;;;;;;;5.22;2.45;;;;;;;23.85;100.00;99202.03;5011418;28;20057;-58
2022/06/08 10:56:59;;;;;;;3.53;3.05;;;;;;;24.23;99.47;99203.09;5012777;28;20550;-59
2022/06/08 11:00:19;;;;;;;4.72;3.25;;;;;;;24.24;99.89;99207.44;5004754;28;20046;-58
2022/06/08 11:03:18;;;;;;;3.42;3.13;;;;;;;23.84;99.20;99196.84;5015285;28;20045;-58
2022/06/08 11:06:09;;;;;;;3.25;2.92;;;;;;;23.78;100.00;99191.06;5012021;28;20050;-59
2022/06/08 11:08:56;;;;;;;4.35;2.50;;;;;;;24.74;100.00;99199.31;5012295;28;20108;-59
2022/06/08 11:11:49;;;;;;;4.25;2.60;;;;;;;24.71;99.56;99200.44;5015512;28;20384;-59
2022/06/08 11:14:42;;;;;;;4.82;2.58;;;;;;;24.55;98.38;99196.66;5013594;28;20480;-58
2022/06/08 11:17:30;;;;;;;2.83;2.28;;;;;;;24.71;94.29;99202.28;5013998;28;20069;-59
2022/06/08 11:20:38;;;;;;;3.67;2.33;;;;;;;24.76;95.45;99191.13;5010810;28;20045;-58
2022/06/08 11:23:41;;;;;;;2.58;2.17;;;;;;;24.30;91.24;99195.34;5011851;28;20045;-58
2022/06/08 11:26:36;;;;;;;3.00;2.67;;;;;;;23.78;96.85;99190.22;5012164;28;20046;-58
2022/06/08 11:29:25;;;;;;;2.58;2.35;;;;;;;24.44;95.19;99193.16;5020042;28;20535;-58
2022/06/08 11:32:34;;;;;;;2.90;2.70;;;;;;;23.69;100.00;99191.91;5014003;28;20057;-59
2022/06/08 11:35:49;;;;;;;3.05;2.35;;;;;;;23.63;99.19;99181.72;5013935;28;20275;-59
2022/06/08 11:39:07;;;;;;;2.95;2.13;;;;;;;23.85;98.30;99191.34;5011058;28;20049;-58
2022/06/08 11:42:24;;;;;;;3.70;2.50;;;;;;;24.10;98.74;99186.47;5014595;28;20056;-58
2022/06/08 11:45:27;;;;;;;2.83;2.40;;;;;;;24.17;96.49;99175.06;5015321;28;20042;-59
2022/06/08 11:48:23;;;;;;;1.73;1.63;;;;;;;24.51;96.07;99177.38;5013317;28;20048;-59
2022/06/08 11:51:08;;;;;;;4.13;2.22;;;;;;;24.34;96.26;99172.66;5011095;28;20045;-59
2022/06/08 11:53:52;;;;;;;4.60;2.70;;;;;;;24.25;96.32;99177.06;5014196;28;20492;-59
2022/06/08 11:57:17;;;;;;;4.25;2.83;;;;;;;24.13;96.73;99173.66;5008252;28;20473;-60
2022/06/08 12:00:06;;;;;;;3.10;2.88;;;;;;;24.02;97.67;99161.28;4982583;28;20084;-59
2022/06/08 12:03:05;;;;;;;3.03;2.75;;;;;;;24.35;91.99;99161.84;5012597;28;20125;-60
2022/06/08 12:05:56;;;;;;;2.83;2.50;;;;;;;24.56;91.55;99166.22;5017855;28;20481;-59
2022/06/08 12:08:45;;;;;;;2.30;1.65;;;;;;;25.42;85.89;99153.56;5012350;28;20050;-60
2022/06/08 12:11:33;;;;;;;2.63;2.35;;;;;;;24.78;92.12;99151.66;5014806;28;20054;-59
2022/06/08 12:14:17;;;;;;;6.43;3.30;;;;;;;24.13;92.31;99151.44;5011619;28;20042;-58
2022/06/08 12:17:04;;;;;;;2.85;2.58;;;;;;;24.14;93.92;99155.78;5011070;28;20050;-58
2022/06/08 12:19:53;;;;;;;3.08;2.20;;;;;;;24.41;92.75;99145.25;5014991;28;20045;-59
2022/06/08 12:22:39;;;;;;;2.95;2.65;;;;;;;24.52;91.52;99143.41;5010151;28;20073;-59
2022/06/08 12:25:26;;;;;;;4.22;2.78;;;;;;;24.32;93.45;99145.22;5010926;28;20049;-59
2022/06/08 12:28:21;;;;;;;4.13;2.00;;;;;;;24.58;94.03;99151.72;5010481;28;20485;-59
2022/06/08 12:31:23;;;;;;;2.33;2.20;;;;;;;24.40;90.55;99142.69;5012383;28;20046;-59
2022/06/08 12:34:38;;;;;;;2.88;2.40;;;;;;;24.74;89.79;99151.13;5011491;28;20049;-59
2022/06/08 12:37:28;;;;;;;3.83;2.10;;;;;;;24.51;90.34;99153.28;5010117;28;20053;-58
2022/06/08 12:40:15;;;;;;;2.50;2.30;;;;;;;24.32;87.41;99150.59;5008841;28;20084;-58
2022/06/08 12:43:06;;;;;;;3.13;2.17;;;;;;;24.29;88.05;99151.72;5009952;28;20465;-58
2022/06/08 12:46:08;;;;;;;2.78;2.10;;;;;;;24.35;90.18;99147.63;5017019;28;20077;-59
2022/06/08 12:49:21;;;;;;;3.10;2.05;;;;;;;24.07;87.84;99138.59;5011858;28;20049;-58
2022/06/08 12:52:23;;;;;;;2.00;1.90;;;;;;;24.54;87.72;99142.28;5009894;28;20069;-59
2022/06/08 12:55:18;;;;;;;4.88;2.30;;;;;;;24.18;87.95;99142.00;5010417;28;20054;-58
2022/06/08 12:58:02;;;;;;;2.85;2.05;;;;;;;24.09;87.19;99137.50;5009395;28;20046;-59
2022/06/08 13:00:52;;;;;;;3.55;1.90;;;;;;;24.13;92.81;99140.72;5005225;28;21015;-59
2022/06/08 13:03:38;;;;;;;2.33;1.88;;;;;;;23.94;87.79;99137.06;5009772;28;20046;-58
2022/06/08 13:06:24;;;;;;;3.90;1.95;;;;;;;23.87;89.51;99137.75;5008252;28;20054;-59
2022/06/08 13:09:14;;;;;;;2.20;2.00;;;;;;;23.86;85.93;99125.38;5008747;28;20133;-57
2022/06/08 13:12:00;;;;;;;3.75;1.83;;;;;;;23.91;87.27;99136.50;5012418;28;20041;-59
2022/06/08 13:14:44;;;;;;;2.45;1.98;;;;;;;24.07;90.44;99131.44;5012090;28;20645;-59
2022/06/08 13:17:30;;;;;;;2.70;1.70;;;;;;;23.78;90.27;99139.44;5012165;28;20414;-59
2022/06/08 13:20:27;;;;;;;4.75;1.73;;;;;;;24.30;89.24;99136.50;5008327;28;20072;-59
2022/06/08 13:23:12;;;;;;;1.63;1.50;;;;;;;24.51;87.42;99134.53;5009719;28;20061;-59
2022/06/08 13:25:57;;;;;;;2.53;2.33;;;;;;;24.15;89.43;99128.91;5010237;28;20061;-59
2022/06/08 13:28:42;;;;;;;2.47;2.00;;;;;;;24.07;88.91;99131.44;5008416;28;20054;-59
2022/06/08 13:31:26;;;;;;;1.98;1.88;;;;;;;24.19;86.06;99121.44;5002844;28;20485;-59
2022/06/08 13:34:11;;;;;;;3.90;1.92;;;;;;;23.68;89.10;99127.84;5011575;28;20559;-58
2022/06/08 13:36:58;;;;;;;2.83;1.70;;;;;;;23.94;87.24;99128.19;5008921;28;20542;-60
2022/06/08 13:39:43;;;;;;;3.47;2.50;;;;;;;23.74;83.42;99113.97;5011144;28;20054;-59